Time;durP1;ratioP1;P1;durP2;ratioP2;P2;SDS_P1;SDS_P2;PMS_P1;PMS_P2;Temp;Humidity;BMP_temperature;BMP_pressure;BME280_temperature;BME280_humidity;BME280_pressure;Samples;Min_cycle;Max_cycle;Signal;HPM_P1;HPM_P2
2022/02/07 00:00:40;;;;;;;;;;;19.00;40.10;;;;;;5075761;28;19995;-62
2022/02/07 00:03:15;;;;;;;;;;;19.00;40.10;;;;;;5075667;28;19912;-62
2022/02/07 00:05:41;;;;;;;;;;;19.00;40.00;;;;;;5075656;28;19909;-62
2022/02/07 00:08:09;;;;;;;;;;;19.00;40.00;;;;;;5075538;28;19908;-62
2022/02/07 00:10:35;;;;;;;;;;;19.00;40.00;;;;;;5075714;28;19919;-62
2022/02/07 00:13:00;;;;;;;;;;;19.00;40.00;;;;;;5075444;28;19931;-62
2022/02/07 00:15:26;;;;;;;;;;;19.00;40.00;;;;;;5057716;28;20348;-62
2022/02/07 00:17:52;;;;;;;;;;;19.00;40.00;;;;;;5074060;28;19912;-62
2022/02/07 00:20:20;;;;;;;;;;;19.00;40.00;;;;;;5075366;28;19908;-62
2022/02/07 00:22:46;;;;;;;;;;;19.00;40.00;;;;;;5075196;28;19916;-62
2022/02/07 00:25:12;;;;;;;;;;;19.00;40.00;;;;;;5075202;28;19908;-62
2022/02/07 00:27:37;;;;;;;;;;;19.00;40.00;;;;;;5075062;28;19912;-62
2022/02/07 00:30:05;;;;;;;;;;;19.00;40.00;;;;;;5075232;28;19931;-61
2022/02/07 00:32:30;;;;;;;;;;;19.00;39.90;;;;;;5056951;28;19948;-62
2022/02/07 00:34:55;;;;;;;;;;;19.00;40.00;;;;;;5075296;28;19958;-62
2022/02/07 00:37:24;;;;;;;;;;;19.00;40.00;;;;;;5074877;28;19969;-62
2022/02/07 00:39:56;;;;;;;;;;;18.90;40.00;;;;;;5074677;28;20038;-62
2022/02/07 00:42:30;;;;;;;;;;;18.90;39.90;;;;;;5074702;28;19908;-62
2022/02/07 00:44:59;;;;;;;;;;;18.90;39.90;;;;;;5074785;28;19908;-62
2022/02/07 00:47:25;;;;;;;;;;;18.90;39.90;;;;;;5056822;28;20360;-62
2022/02/07 00:49:50;;;;;;;;;;;18.90;39.90;;;;;;5056987;28;19908;-61
2022/02/07 00:52:16;;;;;;;;;;;18.90;39.90;;;;;;5074870;28;19974;-62
2022/02/07 00:54:41;;;;;;;;;;;18.90;39.90;;;;;;5074601;28;20317;-62
2022/02/07 00:57:07;;;;;;;;;;;18.90;39.90;;;;;;5074440;28;19962;-62
2022/02/07 00:59:32;;;;;;;;;;;18.90;39.90;;;;;;5074389;28;19966;-62
2022/02/07 01:01:58;;;;;;;;;;;18.90;39.90;;;;;;5074208;28;19927;-62
2022/02/07 01:04:24;;;;;;;;;;;18.80;39.90;;;;;;5074323;28;19908;-62
2022/02/07 01:06:50;;;;;;;;;;;18.80;39.90;;;;;;5074292;28;20315;-62
2022/02/07 01:09:22;;;;;;;;;;;18.80;39.80;;;;;;5056391;28;19909;-62
2022/02/07 01:14:44;;;;;;;;;;;18.80;39.90;;;;;;5074300;28;19908;-62
2022/02/07 01:18:11;;;;;;;;;;;18.80;39.90;;;;;;5074297;28;20276;-62
2022/02/07 01:20:43;;;;;;;;;;;18.80;39.90;;;;;;5073798;28;20018;-62
2022/02/07 01:55:39;;;;;;;;;;;18.80;39.60;;;;;;5073622;28;19909;-62
2022/02/07 01:58:05;;;;;;;;;;;18.80;39.60;;;;;;5073844;28;19946;-62
2022/02/07 02:00:30;;;;;;;;;;;18.80;39.70;;;;;;5073293;28;19950;-62
2022/02/07 02:02:55;;;;;;;;;;;18.80;39.60;;;;;;5073255;28;19958;-62
2022/02/07 02:05:21;;;;;;;;;;;18.80;39.60;;;;;;5073713;28;19916;-62
2022/02/07 02:07:49;;;;;;;;;;;18.80;39.60;;;;;;5055444;28;19909;-62
2022/02/07 02:10:14;;;;;;;;;;;18.80;39.60;;;;;;5073293;28;19943;-62
2022/02/07 02:13:06;;;;;;;;;;;18.80;39.60;;;;;;5055323;28;19908;-62
2022/02/07 02:35:03;;;;;;;;;;;18.80;39.60;;;;;;5073181;28;19915;-62
2022/02/07 02:37:15;;;;;;;;;;;18.70;39.60;;;;;;5072863;28;20372;-62
2022/02/07 02:47:55;;;;;;;;;;;18.70;39.60;;;;;;5073036;28;19966;-62
2022/02/07 02:50:35;;;;;;;;;;;18.70;39.60;;;;;;5072958;28;20292;-62
2022/02/07 02:53:08;;;;;;;;;;;18.70;39.50;;;;;;5073176;28;19908;-62
2022/02/07 02:55:34;;;;;;;;;;;18.70;39.50;;;;;;5072869;28;19912;-62
2022/02/07 02:58:00;;;;;;;;;;;18.80;39.50;;;;;;5054955;28;20018;-62
2022/02/07 03:00:26;;;;;;;;;;;18.70;39.50;;;;;;5072940;28;19916;-62
2022/02/07 03:02:52;;;;;;;;;;;18.70;39.50;;;;;;5072924;28;20406;-62
2022/02/07 03:05:17;;;;;;;;;;;18.70;39.50;;;;;;5076369;28;19990;-62
2022/02/07 03:07:43;;;;;;;;;;;18.70;39.50;;;;;;5076640;28;19908;-62
2022/02/07 03:10:10;;;;;;;;;;;18.70;39.40;;;;;;5058743;28;19949;-62
2022/02/07 03:12:47;;;;;;;;;;;18.70;39.40;;;;;;5076611;28;20260;-62
2022/02/07 03:16:37;;;;;;;;;;;18.70;39.40;;;;;;5076513;28;19948;-62
2022/02/07 03:17:58;;;;;;;;;;;18.70;39.40;;;;;;5076319;28;20007;-62
2022/02/07 03:20:23;;;;;;;;;;;18.70;39.50;;;;;;5076407;28;20004;-62
2022/02/07 03:22:49;;;;;;;;;;;18.70;39.40;;;;;;5076536;28;20379;-62
2022/02/07 03:25:14;;;;;;;;;;;18.70;39.40;;;;;;5076480;28;19955;-61
2022/02/07 03:27:40;;;;;;;;;;;18.70;39.40;;;;;;5076319;28;19912;-62
2022/02/07 03:30:05;;;;;;;;;;;18.70;39.30;;;;;;5076265;28;19908;-62
2022/02/07 03:32:31;;;;;;;;;;;18.70;39.40;;;;;;5058225;28;19915;-62
2022/02/07 03:34:56;;;;;;;;;;;18.70;39.40;;;;;;5076136;28;19923;-62
2022/02/07 03:37:22;;;;;;;;;;;18.70;39.50;;;;;;5076044;28;19917;-62
2022/02/07 03:39:47;;;;;;;;;;;18.70;39.40;;;;;;5076039;28;19912;-62
2022/02/07 03:42:13;;;;;;;;;;;18.70;39.40;;;;;;5076035;28;19916;-62
2022/02/07 03:44:38;;;;;;;;;;;18.60;39.40;;;;;;5074707;28;19934;-62
2022/02/07 03:47:04;;;;;;;;;;;18.70;39.40;;;;;;5075972;28;19961;-62
2022/02/07 03:49:31;;;;;;;;;;;18.70;39.40;;;;;;5075899;28;19908;-62
2022/02/07 03:51:56;;;;;;;;;;;18.70;39.30;;;;;;5057905;28;19947;-62
2022/02/07 03:54:22;;;;;;;;;;;18.60;39.40;;;;;;5075829;28;19915;-62
2022/02/07 03:56:47;;;;;;;;;;;18.70;39.30;;;;;;5075709;28;19916;-62
2022/02/07 03:59:13;;;;;;;;;;;18.70;39.30;;;;;;5075694;28;19919;-62
2022/02/07 04:01:38;;;;;;;;;;;18.70;39.30;;;;;;5075486;28;19947;-62
2022/02/07 04:04:04;;;;;;;;;;;18.60;39.30;;;;;;5075596;28;19908;-62
2022/02/07 04:06:30;;;;;;;;;;;18.70;39.30;;;;;;5075751;28;19920;-62
2022/02/07 04:09:00;;;;;;;;;;;18.70;39.30;;;;;;5075577;28;20264;-62
2022/02/07 04:11:34;;;;;;;;;;;18.70;39.30;;;;;;5076081;28;19908;-62
2022/02/07 04:14:00;;;;;;;;;;;18.70;39.30;;;;;;5075406;28;19934;-62
2022/02/07 04:16:35;;;;;;;;;;;18.70;39.30;;;;;;5074581;28;19917;-62
2022/02/07 04:19:18;;;;;;;;;;;18.70;39.30;;;;;;5074085;28;19908;-62
2022/02/07 04:21:45;;;;;;;;;;;18.70;39.30;;;;;;5075358;28;19953;-62
2022/02/07 04:24:10;;;;;;;;;;;18.70;39.30;;;;;;5075300;28;19948;-62
2022/02/07 04:26:36;;;;;;;;;;;18.60;39.30;;;;;;5075201;28;20005;-62
2022/02/07 04:29:02;;;;;;;;;;;18.60;39.30;;;;;;5075362;28;20110;-62
2022/02/07 04:31:27;;;;;;;;;;;18.70;39.30;;;;;;5075070;28;19944;-62
2022/02/07 04:33:53;;;;;;;;;;;18.60;39.30;;;;;;5075010;28;20292;-62
2022/02/07 04:36:18;;;;;;;;;;;18.60;39.30;;;;;;5075188;28;19912;-62
2022/02/07 04:38:44;;;;;;;;;;;18.60;39.30;;;;;;5074979;28;19909;-62
2022/02/07 04:41:10;;;;;;;;;;;18.70;39.30;;;;;;5074922;28;19909;-61
2022/02/07 04:43:37;;;;;;;;;;;18.60;39.30;;;;;;5056882;28;19909;-62
2022/02/07 04:46:35;;;;;;;;;;;18.60;39.30;;;;;;5074842;28;19916;-62
2022/02/07 04:54:15;;;;;;;;;;;18.60;39.30;;;;;;5074961;28;20348;-62
2022/02/07 05:02:37;;;;;;;;;;;18.60;39.20;;;;;;5052978;28;19920;-62
2022/02/07 05:15:56;;;;;;;;;;;18.60;39.20;;;;;;5074201;28;19920;-62
2022/02/07 05:18:22;;;;;;;;;;;18.70;39.10;;;;;;5074155;28;19913;-62
2022/02/07 05:20:47;;;;;;;;;;;18.70;39.10;;;;;;5074044;28;19916;-62
2022/02/07 05:23:13;;;;;;;;;;;18.70;39.10;;;;;;5074386;28;19908;-62
2022/02/07 05:25:39;;;;;;;;;;;18.80;39.00;;;;;;5074053;28;19915;-62
2022/02/07 05:28:04;;;;;;;;;;;18.80;39.00;;;;;;5073840;28;19916;-62
2022/02/07 05:30:30;;;;;;;;;;;18.80;39.00;;;;;;5074224;28;19925;-62
2022/02/07 05:32:55;;;;;;;;;;;18.80;38.90;;;;;;5073959;28;19909;-62
2022/02/07 05:35:21;;;;;;;;;;;18.80;38.90;;;;;;5073783;28;20445;-62
2022/02/07 05:37:46;;;;;;;;;;;18.90;38.80;;;;;;5073980;28;19916;-62
2022/02/07 05:40:23;;;;;;;;;;;18.90;38.80;;;;;;5073708;28;19943;-62
2022/02/07 05:42:48;;;;;;;;;;;18.90;38.90;;;;;;5073754;28;19908;-62
2022/02/07 05:45:14;;;;;;;;;;;18.90;38.80;;;;;;5073483;28;19908;-62
2022/02/07 05:47:39;;;;;;;;;;;18.90;38.80;;;;;;5073639;28;20330;-62
2022/02/07 05:50:05;;;;;;;;;;;18.90;38.80;;;;;;5073607;28;19914;-62
2022/02/07 05:52:30;;;;;;;;;;;19.00;38.70;;;;;;5073526;28;20012;-62
2022/02/07 05:54:56;;;;;;;;;;;19.00;38.70;;;;;;5073458;28;19908;-62
2022/02/07 05:57:21;;;;;;;;;;;19.00;38.70;;;;;;5073353;28;19916;-61
2022/02/07 05:59:47;;;;;;;;;;;19.00;38.70;;;;;;5073444;28;19912;-62
2022/02/07 06:02:12;;;;;;;;;;;19.00;38.70;;;;;;5073333;28;19970;-62
2022/02/07 06:04:38;;;;;;;;;;;19.00;38.70;;;;;;5073418;28;19998;-62
2022/02/07 06:07:03;;;;;;;;;;;19.00;38.70;;;;;;5073450;28;19920;-62
2022/02/07 06:09:29;;;;;;;;;;;19.00;38.70;;;;;;5073317;28;20310;-62
2022/02/07 06:11:56;;;;;;;;;;;19.00;38.70;;;;;;5073369;28;19930;-62
2022/02/07 06:14:21;;;;;;;;;;;19.00;38.70;;;;;;5055425;28;20407;-62
2022/02/07 06:16:46;;;;;;;;;;;19.00;38.70;;;;;;5073233;28;19917;-62
2022/02/07 06:19:12;;;;;;;;;;;19.10;38.70;;;;;;5073284;28;19944;-62
2022/02/07 06:21:38;;;;;;;;;;;19.10;38.70;;;;;;5073176;28;19916;-62
2022/02/07 06:24:04;;;;;;;;;;;19.10;38.70;;;;;;5073157;28;19995;-62
2022/02/07 06:26:30;;;;;;;;;;;19.10;38.70;;;;;;5073209;28;19959;-62
2022/02/07 06:28:56;;;;;;;;;;;19.10;38.70;;;;;;5073123;28;20288;-62
2022/02/07 06:31:21;;;;;;;;;;;19.10;38.70;;;;;;5073038;28;19943;-62
2022/02/07 06:33:47;;;;;;;;;;;19.10;38.70;;;;;;5072853;28;19914;-62
2022/02/07 06:36:12;;;;;;;;;;;19.10;38.70;;;;;;5072961;28;20019;-62
2022/02/07 06:38:38;;;;;;;;;;;19.10;38.60;;;;;;5073867;28;19948;-62
2022/02/07 06:41:03;;;;;;;;;;;19.10;38.70;;;;;;5077175;28;19999;-62
2022/02/07 06:43:29;;;;;;;;;;;19.10;38.70;;;;;;5077009;28;20241;-61
2022/02/07 06:45:54;;;;;;;;;;;19.10;38.60;;;;;;5076982;28;19916;-62
2022/02/07 06:48:20;;;;;;;;;;;19.10;38.60;;;;;;5076904;28;19908;-62
2022/02/07 06:50:45;;;;;;;;;;;19.20;38.70;;;;;;5076908;28;19909;-62
2022/02/07 06:53:11;;;;;;;;;;;19.20;38.70;;;;;;5077005;28;19908;-62
2022/02/07 06:55:36;;;;;;;;;;;19.20;38.60;;;;;;5076959;28;19908;-62
2022/02/07 06:58:02;;;;;;;;;;;19.20;38.60;;;;;;5076811;28;19908;-62
2022/02/07 07:00:27;;;;;;;;;;;19.20;38.60;;;;;;5076622;28;19954;-62
2022/02/07 07:02:53;;;;;;;;;;;19.20;38.60;;;;;;5076919;28;19916;-62
2022/02/07 07:05:22;;;;;;;;;;;19.20;38.60;;;;;;5076713;28;19915;-62
2022/02/07 07:07:48;;;;;;;;;;;19.20;38.60;;;;;;5076739;28;20325;-63
2022/02/07 07:10:14;;;;;;;;;;;19.20;38.60;;;;;;5076593;28;19917;-62
2022/02/07 07:12:42;;;;;;;;;;;19.20;38.60;;;;;;5058443;28;19908;-62
2022/02/07 07:15:37;;;;;;;;;;;19.20;38.50;;;;;;5076437;28;20023;-62
2022/02/07 07:18:03;;;;;;;;;;;19.20;38.50;;;;;;5076736;28;19939;-62
2022/02/07 07:20:28;;;;;;;;;;;19.20;38.50;;;;;;5076357;28;19916;-62
2022/02/07 07:22:54;;;;;;;;;;;19.30;38.60;;;;;;5075994;28;19915;-62
2022/02/07 07:25:19;;;;;;;;;;;19.30;38.50;;;;;;5076263;28;20007;-62
2022/02/07 07:27:58;;;;;;;;;;;19.30;38.60;;;;;;5087123;28;20310;-61
2022/02/07 07:30:26;;;;;;;;;;;19.20;38.60;;;;;;5091290;28;20010;-62
2022/02/07 07:32:56;;;;;;;;;;;19.20;38.70;;;;;;5075517;28;20008;-62
2022/02/07 07:35:21;;;;;;;;;;;19.30;38.60;;;;;;5076421;28;20275;-61
2022/02/07 07:37:47;;;;;;;;;;;19.40;38.70;;;;;;5093857;28;19916;-62
2022/02/07 07:40:12;;;;;;;;;;;19.40;38.70;;;;;;5093852;28;20014;-62
2022/02/07 07:42:38;;;;;;;;;;;19.40;38.70;;;;;;5074355;28;19962;-62
2022/02/07 07:45:03;;;;;;;;;;;19.20;38.80;;;;;;5069660;28;19912;-62
2022/02/07 07:47:30;;;;;;;;;;;19.30;38.80;;;;;;5087204;28;20398;-62
2022/02/07 07:50:10;;;;;;;;;;;19.40;38.70;;;;;;5092369;28;19916;-62
2022/02/07 07:53:19;;;;;;;;;;;19.40;38.70;;;;;;5090694;28;19912;-61
2022/02/07 08:01:18;;;;;;;;;;;19.50;38.70;;;;;;5085349;28;20346;-62
2022/02/07 08:03:50;;;;;;;;;;;19.40;38.70;;;;;;5093694;28;19923;-63
2022/02/07 08:06:23;;;;;;;;;;;19.40;38.70;;;;;;5093273;28;19939;-63
2022/02/07 08:09:12;;;;;;;;;;;19.50;38.80;;;;;;5092181;28;19916;-62
2022/02/07 08:11:36;;;;;;;;;;;19.40;38.80;;;;;;5085508;28;19974;-62
2022/02/07 08:14:04;;;;;;;;;;;19.50;38.80;;;;;;5084748;28;19916;-62
2022/02/07 08:16:29;;;;;;;;;;;19.50;38.80;;;;;;5094022;28;19960;-62
2022/02/07 08:19:02;;;;;;;;;;;19.50;38.80;;;;;;5093035;28;20575;-62
2022/02/07 08:21:27;;;;;;;;;;;19.50;38.80;;;;;;5064685;28;20280;-62
2022/02/07 08:23:53;;;;;;;;;;;19.50;38.80;;;;;;5084087;28;19912;-62
2022/02/07 08:26:18;;;;;;;;;;;19.50;38.80;;;;;;5093909;28;19908;-62
2022/02/07 08:28:44;;;;;;;;;;;19.50;38.80;;;;;;5093123;28;19912;-62
2022/02/07 08:31:10;;;;;;;;;;;19.50;38.80;;;;;;5093017;28;19908;-62
2022/02/07 08:33:35;;;;;;;;;;;19.50;38.80;;;;;;5092985;28;19927;-62
2022/02/07 08:36:05;;;;;;;;;;;19.50;38.90;;;;;;5092520;28;20013;-63
2022/02/07 08:38:30;;;;;;;;;;;19.50;38.90;;;;;;5091007;28;19967;-62
2022/02/07 08:40:56;;;;;;;;;;;19.50;38.90;;;;;;5090480;28;19939;-63
2022/02/07 08:43:21;;;;;;;;;;;19.50;38.90;;;;;;5092867;28;19920;-62
2022/02/07 08:45:47;;;;;;;;;;;19.50;38.80;;;;;;5091699;28;19915;-61
2022/02/07 08:48:12;;;;;;;;;;;19.60;38.80;;;;;;5093292;28;20022;-62
2022/02/07 08:50:38;;;;;;;;;;;19.50;38.90;;;;;;5093295;28;20398;-62
2022/02/07 08:53:05;;;;;;;;;;;19.60;39.00;;;;;;5092709;28;20283;-61
2022/02/07 08:58:00;;;;;;;;;;;19.60;38.90;;;;;;5093326;28;20023;-62
2022/02/07 09:04:18;;;;;;;;;;;19.60;39.00;;;;;;5092019;28;19920;-62
2022/02/07 09:10:47;;;;;;;;;;;19.60;38.90;;;;;;5091999;28;19912;-63
2022/02/07 09:13:13;;;;;;;;;;;19.60;39.00;;;;;;5092409;28;19965;-62
2022/02/07 09:18:07;;;;;;;;;;;19.60;39.00;;;;;;5093000;28;19927;-63
2022/02/07 09:20:36;;;;;;;;;;;19.60;39.00;;;;;;5089222;28;20559;-65
2022/02/07 09:23:02;;;;;;;;;;;19.50;39.10;;;;;;5058056;28;19912;-64
2022/02/07 09:25:27;;;;;;;;;;;19.60;39.10;;;;;;5091656;28;19912;-65
2022/02/07 09:27:53;;;;;;;;;;;19.60;39.00;;;;;;5092343;28;19920;-65
2022/02/07 09:30:18;;;;;;;;;;;19.60;39.00;;;;;;5072385;28;19909;-65
2022/02/07 09:32:45;;;;;;;;;;;19.60;39.00;;;;;;5090397;28;19919;-64
2022/02/07 09:35:11;;;;;;;;;;;19.70;39.00;;;;;;5091903;28;19912;-64
2022/02/07 09:37:37;;;;;;;;;;;19.70;39.00;;;;;;5082857;28;19931;-65
2022/02/07 09:40:03;;;;;;;;;;;19.60;39.10;;;;;;5081523;28;19919;-65
2022/02/07 09:42:28;;;;;;;;;;;19.70;39.00;;;;;;5083111;28;19974;-65
2022/02/07 09:45:05;;;;;;;;;;;19.70;39.00;;;;;;5091559;28;19939;-65
2022/02/07 09:47:31;;;;;;;;;;;19.70;39.10;;;;;;5091673;28;20330;-63
2022/02/07 09:49:57;;;;;;;;;;;19.70;39.00;;;;;;5082133;28;19912;-63
2022/02/07 09:52:22;;;;;;;;;;;19.70;39.00;;;;;;5072014;28;19913;-65
2022/02/07 09:54:48;;;;;;;;;;;19.70;39.00;;;;;;5084852;28;19969;-63
2022/02/07 09:57:16;;;;;;;;;;;19.80;38.90;;;;;;5091219;28;19928;-66
2022/02/07 09:59:43;;;;;;;;;;;19.80;39.00;;;;;;5073428;28;19919;-65
2022/02/07 10:02:25;;;;;;;;;;;19.80;39.00;;;;;;5091309;28;19924;-66
2022/02/07 10:04:51;;;;;;;;;;;19.90;39.00;;;;;;5076835;28;19956;-64
2022/02/07 10:15:35;;;;;;;;;;;19.90;38.90;;;;;;5077504;28;19969;-67
2022/02/07 10:18:17;;;;;;;;;;;20.00;38.90;;;;;;5074778;28;19922;-67
2022/02/07 10:35:17;;;;;;;;;;;20.00;38.90;;;;;;5095416;28;20042;-66
2022/02/07 10:37:54;;;;;;;;;;;20.00;39.00;;;;;;5084757;28;19920;-64
2022/02/07 10:40:40;;;;;;;;;;;20.20;38.80;;;;;;5080468;28;20011;-63
2022/02/07 10:43:12;;;;;;;;;;;20.20;38.80;;;;;;5072439;28;19988;-65
2022/02/07 10:45:53;;;;;;;;;;;20.10;38.90;;;;;;5070836;28;19908;-63
2022/02/07 10:48:28;;;;;;;;;;;20.10;38.90;;;;;;5085129;28;19918;-64
2022/02/07 10:51:13;;;;;;;;;;;20.00;39.00;;;;;;5083618;28;19918;-65
2022/02/07 10:53:51;;;;;;;;;;;20.00;39.00;;;;;;5078209;28;19916;-65
2022/02/07 10:56:18;;;;;;;;;;;20.00;39.10;;;;;;5076045;28;19920;-63
2022/02/07 10:58:45;;;;;;;;;;;20.00;39.10;;;;;;5090199;28;20047;-66
2022/02/07 11:03:42;;;;;;;;;;;20.00;39.10;;;;;;5083849;28;19922;-66
2022/02/07 11:06:10;;;;;;;;;;;20.00;39.20;;;;;;5089595;28;19959;-63
2022/02/07 11:08:51;;;;;;;;;;;19.80;39.20;;;;;;5075508;28;20333;-63
2022/02/07 11:16:34;;;;;;;;;;;19.70;39.50;;;;;;5088093;28;19920;-63
2022/02/07 11:19:15;;;;;;;;;;;19.70;39.50;;;;;;5090324;28;19920;-63
2022/02/07 11:22:06;;;;;;;;;;;19.70;39.60;;;;;;5070709;28;19912;-62
2022/02/07 11:24:53;;;;;;;;;;;19.70;39.50;;;;;;5082366;28;20347;-63
2022/02/07 11:27:28;;;;;;;;;;;19.70;39.50;;;;;;5077047;28;19912;-63
2022/02/07 11:29:53;;;;;;;;;;;19.70;39.50;;;;;;5084595;28;19913;-63
2022/02/07 11:32:53;;;;;;;;;;;19.70;39.50;;;;;;5083464;28;19999;-63
2022/02/07 11:35:21;;;;;;;;;;;19.70;39.50;;;;;;5042792;28;19919;-63
2022/02/07 11:38:09;;;;;;;;;;;19.80;39.50;;;;;;5074839;28;19927;-63
2022/02/07 11:40:36;;;;;;;;;;;19.80;39.40;;;;;;5073260;28;20099;-64
2022/02/07 11:43:09;;;;;;;;;;;19.80;39.30;;;;;;5075395;28;19908;-63
2022/02/07 11:46:03;;;;;;;;;;;19.80;39.30;;;;;;5074368;28;20272;-64
2022/02/07 11:48:37;;;;;;;;;;;19.90;39.30;;;;;;5074543;28;20272;-64
2022/02/07 11:51:04;;;;;;;;;;;19.90;39.30;;;;;;5073928;28;19920;-63
2022/02/07 11:53:31;;;;;;;;;;;19.90;39.30;;;;;;5078237;28;19919;-64
2022/02/07 11:56:07;;;;;;;;;;;19.90;39.30;;;;;;5068542;28;19919;-63
2022/02/07 11:58:47;;;;;;;;;;;19.90;39.30;;;;;;5091299;28;19923;-63
2022/02/07 12:01:21;;;;;;;;;;;19.90;39.30;;;;;;5086645;28;20368;-65
2022/02/07 12:03:55;;;;;;;;;;;19.90;39.40;;;;;;5092842;28;19912;-63
2022/02/07 12:06:21;;;;;;;;;;;19.90;39.30;;;;;;5093179;28;19915;-63
2022/02/07 12:08:47;;;;;;;;;;;19.90;39.30;;;;;;5080663;28;19916;-63
2022/02/07 12:11:13;;;;;;;;;;;19.90;39.30;;;;;;5085105;28;19966;-64
2022/02/07 12:13:42;;;;;;;;;;;19.90;39.30;;;;;;5077672;28;19959;-63
2022/02/07 12:16:20;;;;;;;;;;;19.90;39.30;;;;;;5074714;28;20001;-62
2022/02/07 12:18:46;;;;;;;;;;;19.90;39.30;;;;;;5092980;28;19912;-64
2022/02/07 12:21:29;;;;;;;;;;;19.90;39.30;;;;;;5093035;28;19942;-63
2022/02/07 12:23:56;;;;;;;;;;;19.90;39.30;;;;;;5085875;28;19920;-64
2022/02/07 12:26:22;;;;;;;;;;;19.90;39.30;;;;;;5093205;28;19908;-64
2022/02/07 12:28:55;;;;;;;;;;;20.00;39.30;;;;;;5092834;28;19912;-66
2022/02/07 12:31:21;;;;;;;;;;;20.00;39.30;;;;;;5092978;28;20359;-63
2022/02/07 12:33:58;;;;;;;;;;;20.00;39.30;;;;;;5068743;28;20213;-62
2022/02/07 12:36:24;;;;;;;;;;;20.00;39.40;;;;;;5072140;28;19917;-62
2022/02/07 12:38:49;;;;;;;;;;;19.90;39.30;;;;;;5086775;28;19913;-63
2022/02/07 12:41:16;;;;;;;;;;;20.00;39.40;;;;;;5075157;28;19919;-63
2022/02/07 12:43:48;;;;;;;;;;;19.90;39.40;;;;;;5070360;28;19919;-63
2022/02/07 12:46:15;;;;;;;;;;;20.00;39.40;;;;;;5092667;28;20391;-63
2022/02/07 12:48:50;;;;;;;;;;;20.00;39.40;;;;;;5088389;28;19966;-63
2022/02/07 12:51:17;;;;;;;;;;;20.00;39.30;;;;;;5072513;28;19948;-63
2022/02/07 12:53:43;;;;;;;;;;;20.00;39.40;;;;;;5077059;28;19934;-65
2022/02/07 12:56:09;;;;;;;;;;;20.10;39.40;;;;;;5090689;28;19912;-63
2022/02/07 12:58:36;;;;;;;;;;;20.00;39.20;;;;;;5092552;28;19947;-63
2022/02/07 13:01:21;;;;;;;;;;;20.00;39.30;;;;;;5088957;28;20414;-63
2022/02/07 13:03:47;;;;;;;;;;;20.00;39.30;;;;;;5060034;28;19912;-63
2022/02/07 13:06:13;;;;;;;;;;;20.00;39.40;;;;;;5088485;28;19999;-62
2022/02/07 13:08:41;;;;;;;;;;;20.00;39.50;;;;;;5090975;28;20011;-62
2022/02/07 13:11:14;;;;;;;;;;;20.00;39.50;;;;;;5072334;28;20020;-63
2022/02/07 13:13:48;;;;;;;;;;;20.00;39.50;;;;;;5091761;28;20018;-63
2022/02/07 13:16:15;;;;;;;;;;;20.00;39.50;;;;;;5072580;28;19980;-62
2022/02/07 13:18:41;;;;;;;;;;;20.00;39.50;;;;;;5078492;28;19962;-63
2022/02/07 13:21:12;;;;;;;;;;;20.00;39.50;;;;;;5073253;28;19960;-63
2022/02/07 13:23:39;;;;;;;;;;;20.00;39.50;;;;;;5088787;28;19993;-62
2022/02/07 13:26:08;;;;;;;;;;;20.00;39.50;;;;;;5092039;28;20367;-63
2022/02/07 13:28:38;;;;;;;;;;;20.00;39.50;;;;;;5089563;28;19923;-64
2022/02/07 13:31:05;;;;;;;;;;;20.00;39.50;;;;;;5092342;28;19946;-63
2022/02/07 13:33:31;;;;;;;;;;;20.00;39.50;;;;;;5090782;28;19916;-64
2022/02/07 13:35:58;;;;;;;;;;;20.00;39.60;;;;;;5091732;28;19969;-64
2022/02/07 13:38:24;;;;;;;;;;;20.00;39.60;;;;;;5091516;28;19924;-64
2022/02/07 13:40:51;;;;;;;;;;;20.00;39.60;;;;;;5090653;28;19908;-63
2022/02/07 13:43:27;;;;;;;;;;;20.00;39.50;;;;;;5090943;28;19920;-64
2022/02/07 13:45:54;;;;;;;;;;;20.00;39.50;;;;;;5076611;28;20003;-63
2022/02/07 13:48:21;;;;;;;;;;;20.00;39.50;;;;;;5089822;28;19920;-64
2022/02/07 13:50:48;;;;;;;;;;;20.00;39.60;;;;;;5071567;28;19912;-64
2022/02/07 13:53:16;;;;;;;;;;;20.00;39.60;;;;;;5081241;28;19924;-67
2022/02/07 13:55:42;;;;;;;;;;;20.00;39.60;;;;;;5090756;28;20344;-63
2022/02/07 13:58:09;;;;;;;;;;;20.00;39.50;;;;;;5094775;28;19916;-62
2022/02/07 14:00:36;;;;;;;;;;;20.00;39.60;;;;;;5073054;28;19951;-62
2022/02/07 14:03:12;;;;;;;;;;;20.00;39.50;;;;;;5080992;28;19948;-64
2022/02/07 14:05:40;;;;;;;;;;;20.00;39.60;;;;;;5080386;28;19916;-62
2022/02/07 14:08:06;;;;;;;;;;;20.10;39.50;;;;;;5090363;28;19944;-63
2022/02/07 14:10:36;;;;;;;;;;;20.00;39.60;;;;;;5089320;28;19915;-63
2022/02/07 14:13:01;;;;;;;;;;;20.00;39.50;;;;;;5090633;28;19908;-62
2022/02/07 14:15:27;;;;;;;;;;;20.00;39.60;;;;;;5091519;28;20364;-62
2022/02/07 14:17:52;;;;;;;;;;;20.00;39.60;;;;;;5090756;28;19916;-62
2022/02/07 14:20:24;;;;;;;;;;;20.00;39.60;;;;;;5090369;28;19912;-62
2022/02/07 14:22:49;;;;;;;;;;;20.00;39.70;;;;;;5090201;28;19920;-63
2022/02/07 14:25:15;;;;;;;;;;;20.00;39.60;;;;;;5091705;28;19912;-64
2022/02/07 14:27:41;;;;;;;;;;;20.00;39.60;;;;;;5082796;28;19912;-63
2022/02/07 14:30:07;;;;;;;;;;;20.00;39.60;;;;;;5088878;28;19912;-62
2022/02/07 14:32:32;;;;;;;;;;;20.00;39.50;;;;;;5091249;28;19914;-62
2022/02/07 14:34:58;;;;;;;;;;;20.00;39.60;;;;;;5090912;28;20329;-62
2022/02/07 14:37:24;;;;;;;;;;;20.00;39.50;;;;;;5090377;28;19931;-64
2022/02/07 14:39:50;;;;;;;;;;;20.00;39.60;;;;;;5071893;28;20319;-62
2022/02/07 14:42:16;;;;;;;;;;;20.00;39.50;;;;;;5091708;28;19912;-63
2022/02/07 14:44:58;;;;;;;;;;;20.00;39.50;;;;;;5091520;28;19912;-61
2022/02/07 14:47:41;;;;;;;;;;;20.10;39.50;;;;;;5060132;28;20364;-62
2022/02/07 14:50:07;;;;;;;;;;;20.10;39.40;;;;;;5085644;28;19940;-65
2022/02/07 14:52:33;;;;;;;;;;;20.10;39.50;;;;;;5072502;28;19908;-63
2022/02/07 14:54:58;;;;;;;;;;;20.10;39.50;;;;;;5083350;28;19920;-65
2022/02/07 14:57:23;;;;;;;;;;;20.00;39.50;;;;;;5083787;28;19958;-65
2022/02/07 14:59:49;;;;;;;;;;;20.00;39.60;;;;;;5082127;28;19919;-65
2022/02/07 15:02:14;;;;;;;;;;;20.00;39.60;;;;;;5110446;28;19989;-63
2022/02/07 15:04:40;;;;;;;;;;;20.00;39.70;;;;;;5099424;28;19930;-64
2022/02/07 15:07:05;;;;;;;;;;;20.00;39.80;;;;;;5094673;28;19927;-63
2022/02/07 15:09:31;;;;;;;;;;;20.00;39.60;;;;;;5092187;28;19915;-62
2022/02/07 15:11:57;;;;;;;;;;;20.00;39.60;;;;;;5094756;28;19912;-64
2022/02/07 15:14:22;;;;;;;;;;;20.00;39.70;;;;;;5095065;28;19918;-63
2022/02/07 15:16:48;;;;;;;;;;;20.00;39.70;;;;;;5094717;28;19916;-62
2022/02/07 15:19:15;;;;;;;;;;;20.00;39.70;;;;;;5093889;28;19916;-63
2022/02/07 15:21:40;;;;;;;;;;;20.00;39.70;;;;;;5067121;28;20360;-62
2022/02/07 15:24:06;;;;;;;;;;;20.00;39.70;;;;;;5100361;28;19994;-64
2022/02/07 15:26:32;;;;;;;;;;;20.00;39.70;;;;;;5089948;28;19916;-64
2022/02/07 15:28:59;;;;;;;;;;;20.00;39.70;;;;;;5094955;28;19908;-63
2022/02/07 15:31:30;;;;;;;;;;;20.00;39.70;;;;;;5094046;28;20534;-63
2022/02/07 15:33:56;;;;;;;;;;;20.00;39.70;;;;;;5095237;28;19950;-64
2022/02/07 15:36:24;;;;;;;;;;;20.00;39.70;;;;;;5094621;28;19927;-63
2022/02/07 15:38:50;;;;;;;;;;;20.00;39.70;;;;;;5075934;28;19919;-64
2022/02/07 15:41:16;;;;;;;;;;;20.00;39.70;;;;;;5076918;28;19923;-63
2022/02/07 15:43:42;;;;;;;;;;;20.00;39.70;;;;;;5094622;28;19915;-63
2022/02/07 15:46:07;;;;;;;;;;;20.00;39.70;;;;;;5075932;28;19923;-63
2022/02/07 15:48:34;;;;;;;;;;;20.00;39.70;;;;;;5094145;28;19908;-63
2022/02/07 15:51:00;;;;;;;;;;;20.00;39.70;;;;;;5075821;28;19990;-63
2022/02/07 15:53:25;;;;;;;;;;;20.00;39.70;;;;;;5076780;28;20014;-63
2022/02/07 15:55:51;;;;;;;;;;;20.00;39.70;;;;;;5076265;28;19935;-63
2022/02/07 15:58:17;;;;;;;;;;;20.00;39.70;;;;;;5092402;28;19920;-63
2022/02/07 16:00:42;;;;;;;;;;;20.00;39.70;;;;;;5094241;28;20391;-63
2022/02/07 16:03:08;;;;;;;;;;;20.00;39.70;;;;;;5074883;28;20358;-63
2022/02/07 16:05:34;;;;;;;;;;;20.00;39.60;;;;;;5075235;28;19923;-63
2022/02/07 16:08:01;;;;;;;;;;;20.00;39.60;;;;;;5094170;28;19915;-63
2022/02/07 16:10:27;;;;;;;;;;;20.00;39.60;;;;;;5081851;28;20261;-63
2022/02/07 16:13:01;;;;;;;;;;;20.00;39.60;;;;;;5108401;28;19908;-64
2022/02/07 16:15:26;;;;;;;;;;;20.00;39.60;;;;;;5079207;28;20384;-63
2022/02/07 16:17:52;;;;;;;;;;;20.00;39.60;;;;;;5096068;28;19922;-63
2022/02/07 16:20:17;;;;;;;;;;;20.00;39.60;;;;;;5094668;28;20439;-63
2022/02/07 16:22:43;;;;;;;;;;;20.00;39.60;;;;;;5094423;28;19911;-63
2022/02/07 16:25:08;;;;;;;;;;;20.00;39.60;;;;;;5073558;28;19912;-64
2022/02/07 16:27:34;;;;;;;;;;;20.00;39.60;;;;;;5075347;28;19916;-66
2022/02/07 16:29:59;;;;;;;;;;;20.00;39.60;;;;;;5091342;28;20371;-65
2022/02/07 16:32:25;;;;;;;;;;;20.00;39.50;;;;;;5076024;28;19909;-65
2022/02/07 16:34:50;;;;;;;;;;;20.00;39.70;;;;;;5093717;28;20283;-64
2022/02/07 16:37:16;;;;;;;;;;;20.00;39.70;;;;;;5089334;28;19939;-66